sensor_id;sensor_type;location;lat;lon;timestamp;pressure;altitude;pressure_sealevel;temperature;humidity
55424;BME280;41294;42.666;23.350;2022-08-03T00:00:55;95047.19;;;20.63;80.94
55424;BME280;41294;42.666;23.350;2022-08-03T00:03:21;95041.59;;;20.66;80.49
55424;BME280;41294;42.666;23.350;2022-08-03T00:05:46;95043.81;;;20.62;80.98
55424;BME280;41294;42.666;23.350;2022-08-03T00:08:11;95041.13;;;20.62;80.87
55424;BME280;41294;42.666;23.350;2022-08-03T00:10:37;95038.97;;;20.61;80.68
55424;BME280;41294;42.666;23.350;2022-08-03T00:13:02;95037.88;;;20.45;81.36
55424;BME280;41294;42.666;23.350;2022-08-03T00:15:28;95036.88;;;20.48;81.64
55424;BME280;41294;42.666;23.350;2022-08-03T00:17:54;95037.31;;;20.52;81.38
55424;BME280;41294;42.666;23.350;2022-08-03T00:20:22;95046.19;;;20.36;82.08
55424;BME280;41294;42.666;23.350;2022-08-03T00:22:48;95041.84;;;20.33;82.69
55424;BME280;41294;42.666;23.350;2022-08-03T00:25:14;95042.06;;;20.35;82.45
55424;BME280;41294;42.666;23.350;2022-08-03T00:27:39;95035.94;;;20.40;82.34
55424;BME280;41294;42.666;23.350;2022-08-03T00:30:06;95038.63;;;20.40;82.31
55424;BME280;41294;42.666;23.350;2022-08-03T00:32:31;95040.84;;;20.36;82.47
55424;BME280;41294;42.666;23.350;2022-08-03T00:34:56;95038.03;;;20.23;82.92
55424;BME280;41294;42.666;23.350;2022-08-03T00:37:22;95043.38;;;20.23;82.98
55424;BME280;41294;42.666;23.350;2022-08-03T00:39:47;95037.56;;;20.19;83.33
55424;BME280;41294;42.666;23.350;2022-08-03T00:42:13;95038.38;;;20.09;84.13
55424;BME280;41294;42.666;23.350;2022-08-03T00:44:40;95040.94;;;20.25;83.45
55424;BME280;41294;42.666;23.350;2022-08-03T00:47:07;95041.41;;;20.29;83.11
55424;BME280;41294;42.666;23.350;2022-08-03T00:49:35;95039.47;;;20.24;83.19
55424;BME280;41294;42.666;23.350;2022-08-03T00:52:01;95039.47;;;20.24;83.19
55424;BME280;41294;42.666;23.350;2022-08-03T00:54:27;95034.16;;;20.19;83.17
55424;BME280;41294;42.666;23.350;2022-08-03T00:56:52;95042.53;;;20.04;83.69
55424;BME280;41294;42.666;23.350;2022-08-03T00:59:18;95040.34;;;20.03;84.40
55424;BME280;41294;42.666;23.350;2022-08-03T01:01:43;95039.09;;;20.09;84.05
55424;BME280;41294;42.666;23.350;2022-08-03T01:04:09;95030.09;;;20.12;83.85
55424;BME280;41294;42.666;23.350;2022-08-03T01:07:05;95030.38;;;20.09;83.60
55424;BME280;41294;42.666;23.350;2022-08-03T01:12:14;95024.13;;;19.95;84.06
55424;BME280;41294;42.666;23.350;2022-08-03T01:14:54;95030.03;;;19.78;85.46
55424;BME280;41294;42.666;23.350;2022-08-03T01:17:43;95023.22;;;19.82;85.60
55424;BME280;41294;42.666;23.350;2022-08-03T01:20:13;95021.72;;;19.86;85.26
55424;BME280;41294;42.666;23.350;2022-08-03T01:22:43;95030.75;;;19.78;85.80
55424;BME280;41294;42.666;23.350;2022-08-03T01:30:11;95016.19;;;19.79;85.55
55424;BME280;41294;42.666;23.350;2022-08-03T01:35:32;95025.63;;;19.85;84.70
55424;BME280;41294;42.666;23.350;2022-08-03T01:38:06;95026.84;;;19.84;84.64
55424;BME280;41294;42.666;23.350;2022-08-03T01:40:35;95022.94;;;19.85;84.70
55424;BME280;41294;42.666;23.350;2022-08-03T01:43:03;95031.94;;;19.83;84.75
55424;BME280;41294;42.666;23.350;2022-08-03T01:45:31;95030.53;;;19.71;85.61
55424;BME280;41294;42.666;23.350;2022-08-03T01:47:57;95031.31;;;19.66;85.59
55424;BME280;41294;42.666;23.350;2022-08-03T01:50:28;95025.06;;;19.52;86.28
55424;BME280;41294;42.666;23.350;2022-08-03T01:52:56;95035.22;;;19.59;86.12
55424;BME280;41294;42.666;23.350;2022-08-03T01:55:23;95025.75;;;19.58;85.70
55424;BME280;41294;42.666;23.350;2022-08-03T01:57:52;95032.34;;;19.52;85.71
55424;BME280;41294;42.666;23.350;2022-08-03T02:00:19;95032.34;;;19.52;85.84
55424;BME280;41294;42.666;23.350;2022-08-03T02:02:47;95032.56;;;19.54;85.87
55424;BME280;41294;42.666;23.350;2022-08-03T02:05:14;95036.22;;;19.56;85.97
55424;BME280;41294;42.666;23.350;2022-08-03T02:07:42;95040.81;;;19.56;85.96
55424;BME280;41294;42.666;23.350;2022-08-03T02:10:11;95030.91;;;19.51;86.53
55424;BME280;41294;42.666;23.350;2022-08-03T02:12:38;95030.41;;;19.47;86.61
55424;BME280;41294;42.666;23.350;2022-08-03T02:15:04;95035.50;;;19.45;86.70
55424;BME280;41294;42.666;23.350;2022-08-03T02:17:32;95036.00;;;19.49;86.55
55424;BME280;41294;42.666;23.350;2022-08-03T02:19:58;95033.09;;;19.47;86.54
55424;BME280;41294;42.666;23.350;2022-08-03T02:22:25;95028.47;;;19.47;86.82
55424;BME280;41294;42.666;23.350;2022-08-03T02:24:51;95031.63;;;19.46;86.35
55424;BME280;41294;42.666;23.350;2022-08-03T02:27:22;95026.03;;;19.44;85.98
55424;BME280;41294;42.666;23.350;2022-08-03T02:29:52;95025.84;;;19.42;85.84
55424;BME280;41294;42.666;23.350;2022-08-03T02:32:23;95024.66;;;19.32;86.20
55424;BME280;41294;42.666;23.350;2022-08-03T02:34:53;95022.78;;;19.16;87.02
55424;BME280;41294;42.666;23.350;2022-08-03T02:37:23;95029.81;;;19.08;87.77
55424;BME280;41294;42.666;23.350;2022-08-03T02:39:51;95033.72;;;18.96;88.85
55424;BME280;41294;42.666;23.350;2022-08-03T02:42:20;95032.72;;;19.10;88.32
55424;BME280;41294;42.666;23.350;2022-08-03T02:44:48;95027.13;;;19.13;87.90
55424;BME280;41294;42.666;23.350;2022-08-03T02:47:16;95030.78;;;19.16;87.83
55424;BME280;41294;42.666;23.350;2022-08-03T02:49:46;95035.13;;;19.19;87.71
55424;BME280;41294;42.666;23.350;2022-08-03T02:52:12;95029.56;;;19.06;87.74
55424;BME280;41294;42.666;23.350;2022-08-03T02:54:40;95031.72;;;19.07;88.09
55424;BME280;41294;42.666;23.350;2022-08-03T02:57:06;95033.69;;;19.01;88.55
55424;BME280;41294;42.666;23.350;2022-08-03T02:59:34;95031.75;;;19.02;88.42
55424;BME280;41294;42.666;23.350;2022-08-03T03:02:01;95027.63;;;19.01;88.37
55424;BME280;41294;42.666;23.350;2022-08-03T03:04:28;95034.16;;;19.00;88.41
55424;BME280;41294;42.666;23.350;2022-08-03T03:06:55;95043.88;;;19.03;88.58
55424;BME280;41294;42.666;23.350;2022-08-03T03:09:21;95046.53;;;19.08;88.63
55424;BME280;41294;42.666;23.350;2022-08-03T03:11:49;95043.16;;;18.97;89.01
55424;BME280;41294;42.666;23.350;2022-08-03T03:14:16;95050.94;;;18.90;89.60
55424;BME280;41294;42.666;23.350;2022-08-03T03:16:44;95054.53;;;19.08;88.75
55424;BME280;41294;42.666;23.350;2022-08-03T03:19:13;95053.59;;;19.11;88.85
55424;BME280;41294;42.666;23.350;2022-08-03T03:21:40;95055.56;;;18.95;89.58
55424;BME280;41294;42.666;23.350;2022-08-03T03:24:08;95053.34;;;19.04;89.19
55424;BME280;41294;42.666;23.350;2022-08-03T03:26:34;95061.34;;;19.15;88.59
55424;BME280;41294;42.666;23.350;2022-08-03T03:29:01;95068.16;;;19.16;88.78
55424;BME280;41294;42.666;23.350;2022-08-03T03:31:27;95070.06;;;19.21;88.40
55424;BME280;41294;42.666;23.350;2022-08-03T03:33:52;95067.63;;;19.23;88.17
55424;BME280;41294;42.666;23.350;2022-08-03T03:36:19;95071.25;;;19.25;87.93
55424;BME280;41294;42.666;23.350;2022-08-03T03:38:44;95068.34;;;19.29;88.03
55424;BME280;41294;42.666;23.350;2022-08-03T03:41:10;95067.13;;;19.30;87.18
55424;BME280;41294;42.666;23.350;2022-08-03T03:43:37;95063.97;;;19.31;87.20
55424;BME280;41294;42.666;23.350;2022-08-03T03:46:02;95073.91;;;19.93;84.62
55424;BME280;41294;42.666;23.350;2022-08-03T03:48:28;95071.75;;;20.67;81.24
55424;BME280;41294;42.666;23.350;2022-08-03T03:50:54;95069.72;;;21.31;78.04
55424;BME280;41294;42.666;23.350;2022-08-03T03:53:21;95078.94;;;21.96;74.94
55424;BME280;41294;42.666;23.350;2022-08-03T03:55:47;95083.06;;;22.52;71.96
55424;BME280;41294;42.666;23.350;2022-08-03T03:58:13;95083.63;;;23.08;69.69
55424;BME280;41294;42.666;23.350;2022-08-03T04:00:38;95080.88;;;23.52;68.02
55424;BME280;41294;42.666;23.350;2022-08-03T04:03:04;95075.28;;;23.63;67.29
55424;BME280;41294;42.666;23.350;2022-08-03T04:05:29;95076.16;;;24.05;66.18
55424;BME280;41294;42.666;23.350;2022-08-03T04:08:17;95068.19;;;24.12;65.72
55424;BME280;41294;42.666;23.350;2022-08-03T04:11:10;95072.72;;;24.50;64.22
55424;BME280;41294;42.666;23.350;2022-08-03T04:13:49;95076.91;;;24.99;62.56
55424;BME280;41294;42.666;23.350;2022-08-03T04:16:18;95056.75;;;25.41;60.35
55424;BME280;41294;42.666;23.350;2022-08-03T04:18:51;95063.16;;;25.31;61.66
55424;BME280;41294;42.666;23.350;2022-08-03T04:21:18;95070.13;;;25.54;59.98
55424;BME280;41294;42.666;23.350;2022-08-03T04:23:47;95077.72;;;25.91;59.56
55424;BME280;41294;42.666;23.350;2022-08-03T04:26:15;95073.75;;;26.42;57.34
55424;BME280;41294;42.666;23.350;2022-08-03T04:28:45;95069.03;;;26.28;58.45
55424;BME280;41294;42.666;23.350;2022-08-03T04:31:12;95073.25;;;26.73;56.50
55424;BME280;41294;42.666;23.350;2022-08-03T04:33:40;95075.63;;;27.22;55.22
55424;BME280;41294;42.666;23.350;2022-08-03T04:36:10;95077.31;;;27.94;52.54
55424;BME280;41294;42.666;23.350;2022-08-03T04:38:39;95077.44;;;28.42;51.91
55424;BME280;41294;42.666;23.350;2022-08-03T04:41:09;95079.50;;;28.27;52.11
55424;BME280;41294;42.666;23.350;2022-08-03T04:43:35;95083.78;;;28.69;51.00
55424;BME280;41294;42.666;23.350;2022-08-03T04:46:05;95086.19;;;28.90;50.91
55424;BME280;41294;42.666;23.350;2022-08-03T04:48:33;95092.22;;;29.05;50.39
55424;BME280;41294;42.666;23.350;2022-08-03T04:50:59;95089.59;;;29.15;49.54
55424;BME280;41294;42.666;23.350;2022-08-03T04:53:25;95092.09;;;29.20;49.80
55424;BME280;41294;42.666;23.350;2022-08-03T04:55:50;95085.00;;;28.76;48.88
55424;BME280;41294;42.666;23.350;2022-08-03T04:58:16;95080.69;;;28.73;49.68
55424;BME280;41294;42.666;23.350;2022-08-03T05:00:41;95090.16;;;27.86;51.05
55424;BME280;41294;42.666;23.350;2022-08-03T05:03:07;95092.03;;;27.24;51.35
55424;BME280;41294;42.666;23.350;2022-08-03T05:05:32;95094.09;;;25.93;53.62
55424;BME280;41294;42.666;23.350;2022-08-03T05:07:58;95096.47;;;25.13;56.77
55424;BME280;41294;42.666;23.350;2022-08-03T05:10:23;95097.31;;;24.88;57.36
55424;BME280;41294;42.666;23.350;2022-08-03T05:12:49;95098.88;;;25.03;56.79
55424;BME280;41294;42.666;23.350;2022-08-03T05:15:16;95106.78;;;25.78;55.24
55424;BME280;41294;42.666;23.350;2022-08-03T05:17:42;95110.19;;;24.82;57.77
55424;BME280;41294;42.666;23.350;2022-08-03T05:20:08;95108.94;;;25.23;57.25
55424;BME280;41294;42.666;23.350;2022-08-03T05:22:34;95120.50;;;25.59;56.37
55424;BME280;41294;42.666;23.350;2022-08-03T05:25:00;95114.94;;;26.35;55.31
55424;BME280;41294;42.666;23.350;2022-08-03T05:27:26;95117.78;;;27.62;50.74
55424;BME280;41294;42.666;23.350;2022-08-03T05:29:51;95122.47;;;28.31;48.95
55424;BME280;41294;42.666;23.350;2022-08-03T05:32:17;95116.72;;;28.27;48.90
55424;BME280;41294;42.666;23.350;2022-08-03T05:34:42;95119.69;;;28.85;47.96
55424;BME280;41294;42.666;23.350;2022-08-03T05:37:08;95125.81;;;28.53;48.07
55424;BME280;41294;42.666;23.350;2022-08-03T05:39:34;95128.19;;;27.95;49.51
55424;BME280;41294;42.666;23.350;2022-08-03T05:42:01;95128.59;;;28.70;47.65
55424;BME280;41294;42.666;23.350;2022-08-03T05:44:27;95124.38;;;29.74;45.95
55424;BME280;41294;42.666;23.350;2022-08-03T05:46:53;95127.16;;;30.51;44.60
55424;BME280;41294;42.666;23.350;2022-08-03T05:49:19;95122.22;;;30.40;44.23
55424;BME280;41294;42.666;23.350;2022-08-03T05:51:45;95130.81;;;30.63;43.71
55424;BME280;41294;42.666;23.350;2022-08-03T05:54:10;95128.19;;;30.82;42.86
55424;BME280;41294;42.666;23.350;2022-08-03T05:56:36;95128.03;;;30.80;43.09
55424;BME280;41294;42.666;23.350;2022-08-03T05:59:03;95129.06;;;31.56;42.33
55424;BME280;41294;42.666;23.350;2022-08-03T06:01:28;95125.00;;;31.48;41.88
55424;BME280;41294;42.666;23.350;2022-08-03T06:03:56;95128.03;;;29.86;44.63
55424;BME280;41294;42.666;23.350;2022-08-03T06:06:22;95136.31;;;29.96;44.74
55424;BME280;41294;42.666;23.350;2022-08-03T06:08:47;95132.97;;;30.05;44.11
55424;BME280;41294;42.666;23.350;2022-08-03T06:11:13;95128.78;;;30.20;44.86
55424;BME280;41294;42.666;23.350;2022-08-03T06:13:38;95135.16;;;30.49;44.13
55424;BME280;41294;42.666;23.350;2022-08-03T06:16:04;95129.19;;;30.17;44.76
55424;BME280;41294;42.666;23.350;2022-08-03T06:18:30;95128.03;;;30.80;44.00
55424;BME280;41294;42.666;23.350;2022-08-03T06:20:55;95131.09;;;31.75;41.85
55424;BME280;41294;42.666;23.350;2022-08-03T06:23:21;95135.41;;;32.44;40.93
55424;BME280;41294;42.666;23.350;2022-08-03T06:25:47;95130.75;;;32.84;40.61
55424;BME280;41294;42.666;23.350;2022-08-03T06:28:12;95130.38;;;31.19;42.38
55424;BME280;41294;42.666;23.350;2022-08-03T06:30:39;95129.16;;;31.03;43.07
55424;BME280;41294;42.666;23.350;2022-08-03T06:33:04;95125.22;;;31.23;42.54
55424;BME280;41294;42.666;23.350;2022-08-03T06:35:30;95136.28;;;32.46;40.11
55424;BME280;41294;42.666;23.350;2022-08-03T06:37:55;95130.81;;;31.89;41.44
55424;BME280;41294;42.666;23.350;2022-08-03T06:40:22;95122.91;;;30.41;43.93
55424;BME280;41294;42.666;23.350;2022-08-03T06:42:54;95115.94;;;30.64;44.02
55424;BME280;41294;42.666;23.350;2022-08-03T06:45:20;95118.53;;;31.34;42.26
55424;BME280;41294;42.666;23.350;2022-08-03T06:47:46;95124.09;;;32.28;41.34
55424;BME280;41294;42.666;23.350;2022-08-03T06:50:11;95120.78;;;32.30;40.97
55424;BME280;41294;42.666;23.350;2022-08-03T06:52:37;95127.81;;;32.42;40.15
55424;BME280;41294;42.666;23.350;2022-08-03T06:55:03;95114.03;;;32.40;41.01
55424;BME280;41294;42.666;23.350;2022-08-03T06:57:30;95115.19;;;32.18;39.97
55424;BME280;41294;42.666;23.350;2022-08-03T06:59:55;95119.34;;;31.63;41.65
55424;BME280;41294;42.666;23.350;2022-08-03T07:02:26;95110.44;;;31.62;42.03
55424;BME280;41294;42.666;23.350;2022-08-03T07:04:52;95116.03;;;32.40;40.55
55424;BME280;41294;42.666;23.350;2022-08-03T07:07:18;95118.31;;;33.42;39.34
55424;BME280;41294;42.666;23.350;2022-08-03T07:09:45;95121.09;;;33.62;39.60
55424;BME280;41294;42.666;23.350;2022-08-03T07:12:10;95110.53;;;34.10;38.13
55424;BME280;41294;42.666;23.350;2022-08-03T07:14:35;95108.31;;;33.97;38.36
55424;BME280;41294;42.666;23.350;2022-08-03T07:17:01;95117.16;;;33.45;38.70
55424;BME280;41294;42.666;23.350;2022-08-03T07:19:26;95105.72;;;31.63;41.47
55424;BME280;41294;42.666;23.350;2022-08-03T07:21:52;95112.72;;;30.58;43.67
55424;BME280;41294;42.666;23.350;2022-08-03T07:24:17;95108.19;;;29.18;46.58
55424;BME280;41294;42.666;23.350;2022-08-03T07:26:42;95116.69;;;30.31;44.96
55424;BME280;41294;42.666;23.350;2022-08-03T07:29:08;95124.06;;;31.81;42.53
55424;BME280;41294;42.666;23.350;2022-08-03T07:31:33;95121.75;;;32.53;40.84
55424;BME280;41294;42.666;23.350;2022-08-03T07:33:59;95120.94;;;33.00;39.21
55424;BME280;41294;42.666;23.350;2022-08-03T07:36:24;95119.59;;;32.70;39.40
55424;BME280;41294;42.666;23.350;2022-08-03T07:38:51;95115.31;;;32.98;39.17
55424;BME280;41294;42.666;23.350;2022-08-03T07:41:16;95116.34;;;33.33;38.74
55424;BME280;41294;42.666;23.350;2022-08-03T07:43:41;95114.88;;;33.01;38.97
55424;BME280;41294;42.666;23.350;2022-08-03T07:46:07;95116.88;;;33.10;38.31
55424;BME280;41294;42.666;23.350;2022-08-03T07:48:32;95117.19;;;33.35;37.89
55424;BME280;41294;42.666;23.350;2022-08-03T07:50:58;95120.13;;;33.28;37.84
55424;BME280;41294;42.666;23.350;2022-08-03T07:53:23;95122.03;;;32.76;38.25
55424;BME280;41294;42.666;23.350;2022-08-03T07:55:48;95122.03;;;31.08;41.88
55424;BME280;41294;42.666;23.350;2022-08-03T07:58:14;95116.75;;;32.31;39.82
55424;BME280;41294;42.666;23.350;2022-08-03T08:00:43;95119.22;;;32.17;39.23
55424;BME280;41294;42.666;23.350;2022-08-03T08:03:09;95118.34;;;31.86;39.29
55424;BME280;41294;42.666;23.350;2022-08-03T08:05:35;95121.78;;;32.34;39.29
55424;BME280;41294;42.666;23.350;2022-08-03T08:08:01;95127.41;;;33.35;38.49
55424;BME280;41294;42.666;23.350;2022-08-03T08:10:27;95121.47;;;33.48;38.35
55424;BME280;41294;42.666;23.350;2022-08-03T08:12:53;95115.22;;;33.77;37.08
55424;BME280;41294;42.666;23.350;2022-08-03T08:15:19;95119.91;;;33.65;36.79
55424;BME280;41294;42.666;23.350;2022-08-03T08:17:56;95122.13;;;33.78;36.57
55424;BME280;41294;42.666;23.350;2022-08-03T08:20:28;95129.47;;;32.85;37.04
55424;BME280;41294;42.666;23.350;2022-08-03T08:23:06;95137.69;;;33.46;36.91
55424;BME280;41294;42.666;23.350;2022-08-03T08:25:33;95123.16;;;33.94;36.02
55424;BME280;41294;42.666;23.350;2022-08-03T08:27:59;95118.38;;;34.37;34.83
55424;BME280;41294;42.666;23.350;2022-08-03T08:30:30;95120.88;;;34.76;34.29
55424;BME280;41294;42.666;23.350;2022-08-03T08:32:56;95120.66;;;34.95;33.89
55424;BME280;41294;42.666;23.350;2022-08-03T08:35:22;95113.97;;;34.75;34.06
55424;BME280;41294;42.666;23.350;2022-08-03T08:37:48;95116.16;;;33.91;35.53
55424;BME280;41294;42.666;23.350;2022-08-03T08:40:13;95109.22;;;34.11;35.29
55424;BME280;41294;42.666;23.350;2022-08-03T08:42:40;95112.03;;;32.31;37.14
55424;BME280;41294;42.666;23.350;2022-08-03T08:45:06;95110.75;;;32.23;37.85
55424;BME280;41294;42.666;23.350;2022-08-03T08:47:36;95108.13;;;33.63;36.32
55424;BME280;41294;42.666;23.350;2022-08-03T08:50:02;95113.44;;;34.56;34.33
55424;BME280;41294;42.666;23.350;2022-08-03T08:52:28;95109.00;;;34.95;33.55
55424;BME280;41294;42.666;23.350;2022-08-03T08:55:01;95107.78;;;34.63;33.95
55424;BME280;41294;42.666;23.350;2022-08-03T08:57:33;95096.78;;;33.99;34.80
55424;BME280;41294;42.666;23.350;2022-08-03T09:00:00;95106.03;;;34.47;34.59
55424;BME280;41294;42.666;23.350;2022-08-03T09:02:28;95106.16;;;35.16;33.42
55424;BME280;41294;42.666;23.350;2022-08-03T09:04:55;95096.63;;;35.39;33.30
55424;BME280;41294;42.666;23.350;2022-08-03T09:07:21;95092.44;;;34.93;33.47
55424;BME280;41294;42.666;23.350;2022-08-03T09:09:47;95094.66;;;33.76;34.25
55424;BME280;41294;42.666;23.350;2022-08-03T09:12:12;95092.84;;;34.11;34.85
55424;BME280;41294;42.666;23.350;2022-08-03T09:14:38;95097.66;;;34.66;33.46
55424;BME280;41294;42.666;23.350;2022-08-03T09:17:03;95096.34;;;34.67;33.32
55424;BME280;41294;42.666;23.350;2022-08-03T09:19:30;95101.13;;;34.89;33.10
55424;BME280;41294;42.666;23.350;2022-08-03T09:22:16;95100.13;;;35.06;32.45
55424;BME280;41294;42.666;23.350;2022-08-03T09:27:24;95089.88;;;35.88;31.29
55424;BME280;41294;42.666;23.350;2022-08-03T09:29:51;95086.34;;;35.74;31.37
55424;BME280;41294;42.666;23.350;2022-08-03T09:32:22;95084.25;;;35.86;31.83
55424;BME280;41294;42.666;23.350;2022-08-03T09:34:50;95082.47;;;35.91;31.48
55424;BME280;41294;42.666;23.350;2022-08-03T09:37:18;95083.47;;;36.45;30.98
55424;BME280;41294;42.666;23.350;2022-08-03T09:39:44;95084.53;;;36.40;30.68
55424;BME280;41294;42.666;23.350;2022-08-03T09:42:13;95090.09;;;36.28;31.18
55424;BME280;41294;42.666;23.350;2022-08-03T09:44:41;95086.97;;;34.38;32.58
55424;BME280;41294;42.666;23.350;2022-08-03T09:47:07;95083.00;;;32.64;35.12
55424;BME280;41294;42.666;23.350;2022-08-03T09:49:35;95085.81;;;31.15;37.03
55424;BME280;41294;42.666;23.350;2022-08-03T09:52:10;95088.78;;;31.92;36.86
55424;BME280;41294;42.666;23.350;2022-08-03T09:54:36;95076.44;;;33.49;34.68
55424;BME280;41294;42.666;23.350;2022-08-03T09:57:02;95076.19;;;34.51;32.94
55424;BME280;41294;42.666;23.350;2022-08-03T09:59:29;95073.03;;;35.34;32.30
55424;BME280;41294;42.666;23.350;2022-08-03T10:01:56;95073.06;;;35.23;32.74
55424;BME280;41294;42.666;23.350;2022-08-03T10:04:22;95076.72;;;34.82;32.37
55424;BME280;41294;42.666;23.350;2022-08-03T10:07:06;95068.28;;;34.89;31.91
55424;BME280;41294;42.666;23.350;2022-08-03T10:09:33;95070.88;;;34.99;32.76
55424;BME280;41294;42.666;23.350;2022-08-03T10:12:10;95069.84;;;33.72;34.23
55424;BME280;41294;42.666;23.350;2022-08-03T10:14:41;95062.44;;;32.72;35.89
55424;BME280;41294;42.666;23.350;2022-08-03T10:17:09;95062.13;;;32.78;34.60
55424;BME280;41294;42.666;23.350;2022-08-03T10:19:34;95069.97;;;32.44;35.56
55424;BME280;41294;42.666;23.350;2022-08-03T10:22:03;95071.06;;;32.69;35.16
55424;BME280;41294;42.666;23.350;2022-08-03T10:24:33;95068.38;;;33.30;34.96
55424;BME280;41294;42.666;23.350;2022-08-03T10:27:02;95066.13;;;33.68;34.30
55424;BME280;41294;42.666;23.350;2022-08-03T10:29:32;95058.19;;;34.37;33.34
55424;BME280;41294;42.666;23.350;2022-08-03T10:32:03;95057.56;;;34.59;32.96
55424;BME280;41294;42.666;23.350;2022-08-03T10:34:33;95049.59;;;34.74;33.21
55424;BME280;41294;42.666;23.350;2022-08-03T10:37:04;95051.25;;;34.13;33.78
55424;BME280;41294;42.666;23.350;2022-08-03T10:39:32;95050.25;;;34.52;33.85
55424;BME280;41294;42.666;23.350;2022-08-03T10:41:58;95049.84;;;34.23;34.09
55424;BME280;41294;42.666;23.350;2022-08-03T10:44:27;95050.41;;;33.89;34.22
55424;BME280;41294;42.666;23.350;2022-08-03T10:46:55;95045.34;;;34.39;33.62
55424;BME280;41294;42.666;23.350;2022-08-03T10:49:22;95055.16;;;34.65;32.73
55424;BME280;41294;42.666;23.350;2022-08-03T10:51:48;95043.22;;;34.49;33.59
55424;BME280;41294;42.666;23.350;2022-08-03T10:54:37;95037.50;;;34.45;33.07
55424;BME280;41294;42.666;23.350;2022-08-03T11:00:11;95044.00;;;33.43;34.62
55424;BME280;41294;42.666;23.350;2022-08-03T11:03:00;95047.19;;;30.99;37.46
55424;BME280;41294;42.666;23.350;2022-08-03T11:05:27;95040.63;;;30.57;39.64
55424;BME280;41294;42.666;23.350;2022-08-03T11:08:19;95044.94;;;31.88;37.84
55424;BME280;41294;42.666;23.350;2022-08-03T11:10:46;95036.47;;;32.62;36.10
55424;BME280;41294;42.666;23.350;2022-08-03T11:13:17;95037.69;;;32.80;36.26
55424;BME280;41294;42.666;23.350;2022-08-03T11:15:44;95035.88;;;32.73;35.45
55424;BME280;41294;42.666;23.350;2022-08-03T11:18:12;95028.06;;;32.39;36.47
55424;BME280;41294;42.666;23.350;2022-08-03T11:23:10;95025.53;;;31.28;37.76
55424;BME280;41294;42.666;23.350;2022-08-03T11:26:10;95015.13;;;32.49;36.92
55424;BME280;41294;42.666;23.350;2022-08-03T11:28:35;95021.38;;;31.27;37.88
55424;BME280;41294;42.666;23.350;2022-08-03T11:34:10;95013.91;;;31.18;37.30
55424;BME280;41294;42.666;23.350;2022-08-03T11:39:43;94998.72;;;31.15;38.06
55424;BME280;41294;42.666;23.350;2022-08-03T11:44:48;94997.03;;;31.38;37.91
55424;BME280;41294;42.666;23.350;2022-08-03T11:47:14;95001.56;;;32.30;36.96
55424;BME280;41294;42.666;23.350;2022-08-03T11:49:44;94996.06;;;32.79;36.81
55424;BME280;41294;42.666;23.350;2022-08-03T11:52:11;94997.09;;;33.47;35.24
55424;BME280;41294;42.666;23.350;2022-08-03T11:54:37;94998.41;;;33.46;34.95
55424;BME280;41294;42.666;23.350;2022-08-03T11:57:03;95002.31;;;33.63;35.47
55424;BME280;41294;42.666;23.350;2022-08-03T11:59:32;94999.16;;;33.57;36.13
55424;BME280;41294;42.666;23.350;2022-08-03T12:02:12;94999.84;;;33.79;35.54
55424;BME280;41294;42.666;23.350;2022-08-03T12:04:54;94999.16;;;34.11;34.85
55424;BME280;41294;42.666;23.350;2022-08-03T12:07:28;94996.75;;;34.05;34.65
55424;BME280;41294;42.666;23.350;2022-08-03T12:10:13;94999.31;;;34.24;33.54
55424;BME280;41294;42.666;23.350;2022-08-03T12:12:40;94982.91;;;34.47;33.40
55424;BME280;41294;42.666;23.350;2022-08-03T12:15:07;94987.59;;;34.79;32.34
55424;BME280;41294;42.666;23.350;2022-08-03T12:17:38;94985.69;;;34.58;32.54
55424;BME280;41294;42.666;23.350;2022-08-03T12:20:06;94986.88;;;34.55;32.77
55424;BME280;41294;42.666;23.350;2022-08-03T12:22:37;94985.09;;;34.60;32.50
55424;BME280;41294;42.666;23.350;2022-08-03T12:25:06;94987.84;;;34.60;31.98
55424;BME280;41294;42.666;23.350;2022-08-03T12:27:32;94984.16;;;34.67;32.31
55424;BME280;41294;42.666;23.350;2022-08-03T12:29:58;94978.31;;;34.61;31.63
55424;BME280;41294;42.666;23.350;2022-08-03T12:32:29;94980.66;;;35.01;31.11
55424;BME280;41294;42.666;23.350;2022-08-03T12:34:56;94976.38;;;34.98;30.85
55424;BME280;41294;42.666;23.350;2022-08-03T12:37:30;94978.53;;;34.88;31.21
55424;BME280;41294;42.666;23.350;2022-08-03T12:39:59;94976.16;;;34.94;31.32
55424;BME280;41294;42.666;23.350;2022-08-03T12:42:33;94976.97;;;34.96;31.89
55424;BME280;41294;42.666;23.350;2022-08-03T12:44:59;94964.50;;;34.59;32.18
55424;BME280;41294;42.666;23.350;2022-08-03T12:47:24;94971.41;;;33.19;33.91
55424;BME280;41294;42.666;23.350;2022-08-03T12:49:51;94969.75;;;33.67;33.76
55424;BME280;41294;42.666;23.350;2022-08-03T12:52:21;94975.53;;;33.30;32.27
55424;BME280;41294;42.666;23.350;2022-08-03T12:54:58;94965.22;;;32.37;34.32
55424;BME280;41294;42.666;23.350;2022-08-03T12:57:24;94970.38;;;32.43;33.85
55424;BME280;41294;42.666;23.350;2022-08-03T12:59:50;94969.75;;;32.04;34.90
55424;BME280;41294;42.666;23.350;2022-08-03T13:05:45;94962.06;;;31.82;36.89
55424;BME280;41294;42.666;23.350;2022-08-03T13:08:23;94956.38;;;32.67;35.45
55424;BME280;41294;42.666;23.350;2022-08-03T13:10:50;94952.63;;;33.14;34.28
55424;BME280;41294;42.666;23.350;2022-08-03T13:13:15;94946.47;;;33.34;34.28
55424;BME280;41294;42.666;23.350;2022-08-03T13:15:41;94951.56;;;33.40;34.08
55424;BME280;41294;42.666;23.350;2022-08-03T13:18:06;94942.50;;;32.44;36.07
55424;BME280;41294;42.666;23.350;2022-08-03T13:20:32;94956.47;;;32.69;36.05
55424;BME280;41294;42.666;23.350;2022-08-03T13:22:58;94952.38;;;30.41;39.37
55424;BME280;41294;42.666;23.350;2022-08-03T13:25:24;94954.94;;;30.04;40.34